Crookston, MN

11:56 PM CDT on July 20, 2017 (GMT -0500)
Crookston Municipal-Kirkwood

Weather History for KCKN - November, 2012

Change the Weather History Date:

Sunday, November 18, 2012

  Actual Average Record
Temperature  
Mean Temperature 40 °F -  
Max Temperature 48 °F 30 °F 48 °F (2012)
Min Temperature 32 °F 16 °F -2 °F (1996)
Degree Days  
Heating Degree Days 25    
Moisture  
Dew Point 35 °F    
Average Humidity 84    
Maximum Humidity 93    
Minimum Humidity 71    
Precipitation  
Precipitation 0.00 in - - ()
Sea Level Pressure  
Sea Level Pressure 29.97 in    
Wind  
Wind Speed 6 mph (SSE)    
Max Wind Speed 15 mph    
Max Gust Speed -    
Visibility 10 miles    
Events      
Averages and records for this station are not official NWS values.
T = Trace of Precipitation, MM = Missing Value Source: NWS Daily Summary

Daily Weather History Graph

Daily Weather History Graph

Search for Another Location

Airport or City:

Trip Planner

Search our weather history database for the weather conditions in past years. The results will help you decide how hot, cold, wet, or windy it might be!

Date:

Astronomy

Nov. 18, 2012 Rise Set
Actual Time 7:37 AM CST 4:45 PM CST
Civil Twilight 7:03 AM CST 5:19 PM CST
Nautical Twilight 6:25 AM CST 5:57 PM CST
Astronomical Twilight 5:48 AM CST 6:34 PM CST
Moon 12:00 PM CST (11/18) 10:13 PM CST (11/18)
Length of Visible Light 10h 16m
Length of Day
9h 07m
Waxing Crescent, 30% of the Moon is Illuminated
Nov 18
Waxing Crescent
Nov 20
First Quarter
Nov 28
Full
Dec 6
Last Quarter
Dec 13
New

Hourly Weather History & Observations

Time (CST) Temp. Windchill Dew Point Humidity Pressure Visibility Wind Dir Wind Speed Gust Speed Precip Events Conditions
12:14 AM 37.4 °F 33.8 °F 33.8 °F 87% 30.03 in 10.0 mi ENE 4.6 mph - N/A   Clear
12:34 AM 37.4 °F 34.9 °F 33.8 °F 87% 30.02 in 10.0 mi ENE 3.5 mph - N/A   Clear
12:55 AM 37.4 °F 33.8 °F 33.8 °F 87% 30.02 in 10.0 mi ENE 4.6 mph - N/A   Clear
1:14 AM 37.4 °F 34.9 °F 33.8 °F 87% 30.01 in 10.0 mi East 3.5 mph - N/A   Scattered Clouds
1:34 AM 35.6 °F - 33.8 °F 93% 30.02 in 7.0 mi Calm Calm - N/A   Mostly Cloudy
1:55 AM 35.6 °F - 33.8 °F 93% 30.01 in 7.0 mi Calm Calm - N/A   Scattered Clouds
2:14 AM 35.6 °F - 33.8 °F 93% 30.01 in 10.0 mi Calm Calm - N/A   Clear
2:34 AM 35.6 °F 32.8 °F 33.8 °F 93% 30.01 in 10.0 mi ESE 3.5 mph - N/A   Clear
2:55 AM 35.6 °F 31.7 °F 33.8 °F 93% 30.01 in 10.0 mi ESE 4.6 mph - N/A   Clear
3:14 AM 37.4 °F 33.8 °F 33.8 °F 87% 30.01 in 10.0 mi ESE 4.6 mph - N/A   Clear
3:34 AM 37.4 °F 33.8 °F 33.8 °F 87% 30.01 in 10.0 mi SE 4.6 mph - N/A   Clear
4:14 AM 35.6 °F 30.7 °F 33.8 °F 93% 30.01 in 10.0 mi SE 5.8 mph - N/A   Clear
4:35 AM 33.8 °F 27.0 °F 30.2 °F 87% 30.00 in 10.0 mi SE 8.1 mph - N/A   Clear
4:55 AM 33.8 °F 28.6 °F 30.2 °F 87% 30.00 in 10.0 mi SE 5.8 mph - N/A   Clear
5:14 AM 33.8 °F 28.6 °F 30.2 °F 87% 30.00 in 10.0 mi SE 5.8 mph - N/A   Clear
5:35 AM 32.0 °F 25.6 °F 30.2 °F 93% 29.99 in 7.0 mi SE 6.9 mph - N/A   Clear
5:55 AM 32.0 °F 25.6 °F 30.2 °F 93% 29.99 in 7.0 mi SE 6.9 mph - N/A   Clear
6:14 AM 33.8 °F 27.7 °F 30.2 °F 87% 29.99 in 10.0 mi SE 6.9 mph - N/A   Clear
6:35 AM 35.6 °F 29.9 °F 32.0 °F 87% 29.99 in 10.0 mi SE 6.9 mph - N/A   Clear
6:55 AM 32.0 °F 24.8 °F 30.2 °F 93% 29.99 in 10.0 mi SE 8.1 mph - N/A   Clear
7:14 AM 33.8 °F 27.0 °F 30.2 °F 87% 29.99 in 10.0 mi SE 8.1 mph - N/A   Clear
7:35 AM 32.0 °F 24.2 °F 30.2 °F 93% 29.99 in 7.0 mi SE 9.2 mph - N/A   Clear
7:55 AM 32.0 °F 24.8 °F 30.2 °F 93% 29.99 in 10.0 mi SE 8.1 mph - N/A   Clear
8:14 AM 33.8 °F 27.7 °F 30.2 °F 87% 29.99 in 10.0 mi SE 6.9 mph - N/A   Clear
8:35 AM 33.8 °F 27.7 °F 32.0 °F 93% 29.99 in 7.0 mi SE 6.9 mph - N/A   Clear
8:54 AM 35.6 °F 29.9 °F 33.8 °F 93% 29.98 in 7.0 mi SSE 6.9 mph - N/A   Clear
9:14 AM 37.4 °F 30.8 °F 33.8 °F 87% 29.99 in 10.0 mi SE 9.2 mph - N/A   Clear
9:35 AM 39.2 °F 33.6 °F 35.6 °F 87% 29.98 in 10.0 mi SSE 8.1 mph - N/A   Clear
9:55 AM 41.0 °F 35.2 °F 35.6 °F 81% 29.98 in 10.0 mi SSE 9.2 mph - N/A   Clear
10:14 AM 42.8 °F 37.5 °F 35.6 °F 76% 29.98 in 10.0 mi SSE 9.2 mph - N/A   Clear
10:35 AM 42.8 °F 36.2 °F 35.6 °F 76% 29.98 in 10.0 mi South 12.7 mph - N/A   Clear
10:54 AM 42.8 °F 36.2 °F 35.6 °F 76% 29.98 in 10.0 mi South 12.7 mph - N/A   Clear
11:14 AM 44.6 °F 38.4 °F 35.6 °F 71% 29.98 in 10.0 mi South 12.7 mph - N/A   Clear
11:35 AM 44.6 °F 38.8 °F 37.4 °F 76% 29.98 in 10.0 mi South 11.5 mph - N/A   Clear
11:54 AM 44.6 °F 38.8 °F 37.4 °F 76% 29.97 in 10.0 mi South 11.5 mph - N/A   Clear
12:14 PM 46.4 °F 41.1 °F 37.4 °F 71% 29.97 in 10.0 mi South 11.5 mph - N/A   Clear
12:35 PM 46.4 °F 41.1 °F 37.4 °F 71% 29.96 in 10.0 mi South 11.5 mph - N/A   Clear
12:54 PM 46.4 °F 40.1 °F 37.4 °F 71% 29.96 in 10.0 mi South 15.0 mph - N/A   Clear
1:14 PM 46.4 °F 41.5 °F 37.4 °F 71% 29.96 in 10.0 mi South 10.4 mph - N/A   Clear
1:35 PM 46.4 °F 41.5 °F 37.4 °F 71% 29.95 in 10.0 mi SSE 10.4 mph - N/A   Clear
1:54 PM 46.4 °F 41.5 °F 37.4 °F 71% 29.95 in 10.0 mi South 10.4 mph - N/A   Clear
2:14 PM 48.2 °F - 39.2 °F 71% 29.95 in 10.0 mi South 9.2 mph - N/A   Clear
2:35 PM 48.2 °F - 39.2 °F 71% 29.94 in 10.0 mi South 9.2 mph - N/A   Clear
2:54 PM 48.2 °F - 39.2 °F 71% 29.94 in 10.0 mi South 10.4 mph - N/A   Clear
3:14 PM 48.2 °F - 39.2 °F 71% 29.95 in 10.0 mi South 9.2 mph - N/A   Clear
3:35 PM 48.2 °F - 39.2 °F 71% 29.95 in 10.0 mi South 6.9 mph - N/A   Clear
3:54 PM 46.4 °F 43.5 °F 39.2 °F 76% 29.95 in 10.0 mi South 5.8 mph - N/A   Clear
4:14 PM 44.6 °F 42.2 °F 37.4 °F 76% 29.95 in 10.0 mi South 4.6 mph - N/A   Clear
4:35 PM 42.8 °F 40.1 °F 37.4 °F 81% 29.95 in 10.0 mi South 4.6 mph - N/A   Clear
4:54 PM 42.8 °F 41.1 °F 37.4 °F 81% 29.95 in 10.0 mi SSE 3.5 mph - N/A   Clear
5:14 PM 42.8 °F 41.1 °F 37.4 °F 81% 29.95 in 10.0 mi SE 3.5 mph - N/A   Clear
5:34 PM 42.8 °F 39.3 °F 37.4 °F 81% 29.95 in 10.0 mi SE 5.8 mph - N/A   Clear
5:54 PM 39.2 °F 33.6 °F 35.6 °F 87% 29.95 in 10.0 mi SE 8.1 mph - N/A   Clear
6:15 PM 39.2 °F 33.0 °F 35.6 °F 87% 29.95 in 10.0 mi SE 9.2 mph - N/A   Clear
6:34 PM 37.4 °F 30.8 °F 33.8 °F 87% 29.95 in 10.0 mi SE 9.2 mph - N/A   Clear
6:54 PM 37.4 °F 31.4 °F 33.8 °F 87% 29.95 in 10.0 mi SSE 8.1 mph - N/A   Scattered Clouds
7:15 PM 35.6 °F 28.6 °F 33.8 °F 93% 29.94 in 10.0 mi SE 9.2 mph - N/A   Clear
7:34 PM 39.2 °F 32.5 °F 35.6 °F 87% 29.93 in 10.0 mi SE 10.4 mph - N/A   Clear
7:54 PM 39.2 °F 32.5 °F 33.8 °F 81% 29.92 in 10.0 mi SE 10.4 mph - N/A   Clear
8:15 PM 39.2 °F 33.6 °F 33.8 °F 81% 29.91 in 10.0 mi SE 8.1 mph - N/A   Clear
8:34 PM 39.2 °F 32.5 °F 33.8 °F 81% 29.91 in 10.0 mi SE 10.4 mph - N/A   Clear
8:55 PM 37.4 °F 30.3 °F 33.8 °F 87% 29.91 in 10.0 mi SE 10.4 mph - N/A   Clear
9:15 PM 37.4 °F 30.8 °F 33.8 °F 87% 29.91 in 10.0 mi SSE 9.2 mph - N/A   Clear
9:34 PM 37.4 °F 30.8 °F 33.8 °F 87% 29.91 in 10.0 mi SSE 9.2 mph - N/A   Clear
9:55 PM 37.4 °F 30.3 °F 35.6 °F 93% 29.90 in 10.0 mi SE 10.4 mph - N/A   Scattered Clouds
10:15 PM 39.2 °F 33.0 °F 35.6 °F 87% 29.91 in 10.0 mi SSE 9.2 mph - N/A   Scattered Clouds
10:34 PM 41.0 °F 37.1 °F 35.6 °F 81% 29.91 in 10.0 mi SSE 5.8 mph - N/A   Mostly Cloudy
11:15 PM 41.0 °F 36.4 °F 35.6 °F 81% 29.91 in 10.0 mi South 6.9 mph - N/A   Scattered Clouds
11:34 PM 41.0 °F 35.2 °F 35.6 °F 81% 29.91 in 10.0 mi South 9.2 mph - N/A   Scattered Clouds
11:55 PM 37.4 °F 32.8 °F 35.6 °F 93% 29.91 in 10.0 mi SSE 5.8 mph - N/A   Scattered Clouds